createdAt,value
2018-12-08T00:02:49.816Z,7.36
2018-12-08T00:05:57.473Z,7.46
2018-12-08T00:09:07.888Z,7.50
2018-12-08T00:12:25.313Z,7.51
2018-12-08T00:15:42.813Z,7.40
2018-12-08T00:19:00.338Z,7.43
2018-12-08T00:22:17.897Z,7.40
2018-12-08T00:25:25.452Z,7.36
2018-12-08T00:28:33.089Z,7.35
2018-12-08T00:31:46.219Z,7.33
2018-12-08T00:34:53.807Z,7.29
2018-12-08T00:38:01.297Z,7.21
2018-12-08T00:44:24.776Z,7.26
2018-12-08T00:47:42.233Z,7.08
2018-12-08T00:51:00.073Z,7.09
2018-12-08T00:54:08.123Z,6.99
2018-12-08T00:57:15.639Z,6.90
2018-12-08T01:00:33.091Z,6.99
2018-12-08T01:03:50.550Z,6.88
2018-12-08T01:07:08.036Z,6.86
2018-12-08T01:10:25.804Z,6.86
2018-12-08T01:13:43.224Z,6.89
2018-12-08T01:17:00.664Z,6.77
2018-12-08T01:20:18.120Z,6.86
2018-12-08T01:23:35.597Z,6.83
2018-12-08T01:26:43.252Z,6.89
2018-12-08T01:29:50.753Z,6.80
2018-12-08T01:32:58.280Z,6.74
2018-12-08T01:36:05.838Z,6.72
2018-12-08T01:39:23.572Z,6.64
2018-12-08T01:42:31.248Z,6.57
2018-12-08T01:45:39.169Z,6.67
2018-12-08T01:48:46.768Z,6.66
2018-12-08T01:51:54.340Z,6.65
2018-12-08T01:55:02.280Z,6.61
2018-12-08T01:58:09.900Z,6.61
2018-12-08T02:01:17.836Z,6.57
2018-12-08T02:04:25.332Z,6.55
2018-12-08T02:07:32.787Z,6.56
2018-12-08T02:10:40.293Z,6.51
2018-12-08T02:13:57.810Z,6.42
2018-12-08T02:17:15.112Z,6.46
2018-12-08T02:20:32.596Z,6.46
2018-12-08T02:23:50.217Z,6.46
2018-12-08T02:26:57.712Z,6.43
2018-12-08T02:30:06.537Z,6.38
2018-12-08T02:33:14.414Z,6.37
2018-12-08T02:36:21.941Z,6.38
2018-12-08T02:39:39.500Z,6.33
2018-12-08T02:42:47.174Z,6.29
2018-12-08T02:45:54.664Z,6.37
2018-12-08T02:49:02.156Z,6.32
2018-12-08T02:52:09.636Z,6.41
2018-12-08T02:55:17.147Z,6.27
2018-12-08T02:58:34.524Z,6.38
2018-12-08T03:01:53.046Z,6.39
2018-12-08T03:05:00.544Z,6.46
2018-12-08T03:08:18.608Z,6.49
2018-12-08T03:11:36.081Z,6.54
2018-12-08T03:14:53.519Z,6.52
2018-12-08T03:18:10.963Z,6.60
2018-12-08T03:21:28.875Z,6.65
2018-12-08T03:24:36.684Z,6.71
2018-12-08T03:27:45.361Z,6.71
2018-12-08T03:30:53.265Z,6.72
2018-12-08T03:34:01.029Z,6.69
2018-12-08T03:40:24.316Z,6.73
2018-12-08T03:43:41.760Z,6.72
2018-12-08T03:46:59.260Z,6.71
2018-12-08T03:50:16.691Z,6.63
2018-12-08T03:53:34.140Z,6.64
2018-12-08T03:56:52.077Z,6.70
2018-12-08T03:59:59.680Z,6.71
2018-12-08T04:03:07.144Z,6.68
2018-12-08T04:06:14.628Z,6.70
2018-12-08T04:09:32.324Z,6.65
2018-12-08T04:12:49.702Z,6.68
2018-12-08T04:16:07.672Z,6.75
2018-12-08T04:19:15.236Z,6.71
2018-12-08T04:22:22.765Z,6.77
2018-12-08T04:25:30.376Z,6.77
2018-12-08T04:28:47.788Z,6.79
2018-12-08T04:32:05.258Z,6.91
2018-12-08T04:35:22.692Z,6.83
2018-12-08T04:38:40.144Z,6.91
2018-12-08T04:41:57.589Z,6.88
2018-12-08T04:45:06.786Z,6.89
2018-12-08T04:48:14.280Z,6.97
2018-12-08T04:51:21.761Z,7.01
2018-12-08T04:54:29.222Z,6.97
2018-12-08T04:57:37.155Z,6.87
2018-12-08T05:00:44.631Z,6.83
2018-12-08T05:03:52.116Z,6.78
2018-12-08T05:06:59.632Z,6.73
2018-12-08T05:10:08.972Z,6.80
2018-12-08T05:13:16.465Z,6.78
2018-12-08T05:16:23.953Z,6.77
2018-12-08T05:19:31.529Z,6.76
2018-12-08T05:22:39.007Z,6.78
2018-12-08T05:25:46.493Z,6.84
2018-12-08T05:29:03.868Z,6.83
2018-12-08T05:32:21.905Z,6.79
2018-12-08T05:35:29.484Z,6.77
2018-12-08T05:38:36.967Z,6.77
2018-12-08T05:41:44.332Z,6.73
2018-12-08T05:44:51.796Z,6.72
2018-12-08T05:47:59.288Z,6.78
2018-12-08T05:51:16.856Z,6.73
2018-12-08T05:54:34.372Z,6.78
2018-12-08T05:57:42.284Z,6.83
2018-12-08T06:00:49.771Z,6.87
2018-12-08T06:03:57.359Z,6.84
2018-12-08T06:07:15.113Z,6.93
2018-12-08T06:10:22.849Z,7.05
2018-12-08T06:13:30.372Z,7.09
2018-12-08T06:16:37.841Z,7.19
2018-12-08T06:19:45.336Z,7.21
2018-12-08T06:23:02.832Z,7.18
2018-12-08T06:26:23.438Z,7.20
2018-12-08T06:29:41.716Z,7.20
2018-12-08T06:32:49.203Z,7.19
2018-12-08T06:35:56.667Z,7.19
2018-12-08T06:39:05.192Z,7.11
2018-12-08T06:42:12.708Z,7.22
2018-12-08T06:45:20.291Z,7.25
2018-12-08T06:48:37.604Z,7.18
2018-12-08T06:51:55.244Z,7.16
2018-12-08T06:55:12.801Z,7.19
2018-12-08T06:58:20.387Z,7.17
2018-12-08T07:01:27.856Z,7.28
2018-12-08T07:04:35.341Z,7.28
2018-12-08T07:07:42.820Z,7.29
2018-12-08T07:10:50.288Z,7.36
2018-12-08T07:14:07.789Z,7.37
2018-12-08T07:17:25.216Z,7.44
2018-12-08T07:20:42.682Z,7.41
2018-12-08T07:24:00.156Z,7.36
2018-12-08T07:27:17.686Z,7.40
2018-12-08T07:30:35.283Z,7.42
2018-12-08T07:33:43.180Z,7.41
2018-12-08T07:40:09.519Z,7.50
2018-12-08T07:43:27.173Z,7.48
2018-12-08T07:46:44.598Z,7.57
2018-12-08T07:50:02.123Z,7.68
2018-12-08T07:53:19.480Z,7.73
2018-12-08T07:56:36.987Z,7.66
2018-12-08T07:59:54.527Z,7.56
2018-12-08T08:03:11.929Z,7.59
2018-12-08T08:06:29.388Z,7.51
2018-12-08T08:09:46.803Z,7.45
2018-12-08T08:13:04.240Z,7.43
2018-12-08T08:16:21.725Z,7.32
2018-12-08T08:19:39.202Z,7.27
2018-12-08T08:22:56.604Z,7.23
2018-12-08T08:26:14.082Z,7.25
2018-12-08T08:29:31.607Z,7.22
2018-12-08T08:32:48.983Z,7.28
2018-12-08T08:36:06.432Z,7.29
2018-12-08T08:39:23.913Z,7.38
2018-12-08T08:42:41.320Z,7.38
2018-12-08T08:45:58.764Z,7.40
2018-12-08T08:49:16.191Z,7.50
2018-12-08T08:52:33.997Z,7.60
2018-12-08T08:55:41.561Z,7.68
2018-12-08T08:58:49.041Z,7.73
2018-12-08T09:01:57.315Z,7.82
2018-12-08T09:05:06.090Z,7.90
2018-12-08T09:08:13.593Z,7.89
2018-12-08T09:11:21.196Z,7.92
2018-12-08T09:14:28.676Z,7.96
2018-12-08T09:17:36.157Z,7.94
2018-12-08T09:20:53.624Z,7.94
2018-12-08T09:24:11.119Z,7.93
2018-12-08T09:27:28.640Z,7.92
2018-12-08T09:30:46.155Z,7.99
2018-12-08T09:34:03.520Z,7.99
2018-12-08T09:37:21.208Z,8.02
2018-12-08T09:40:29.213Z,7.98
2018-12-08T09:43:36.703Z,8.03
2018-12-08T09:46:44.648Z,8.07
2018-12-08T09:49:52.185Z,8.03
2018-12-08T09:53:14.733Z,8.04
2018-12-08T09:56:22.206Z,8.04
2018-12-08T09:59:29.724Z,8.05
2018-12-08T10:02:37.271Z,8.09
2018-12-08T10:05:44.734Z,8.06
2018-12-08T10:08:52.368Z,8.09
2018-12-08T10:11:59.943Z,8.08
2018-12-08T10:15:07.984Z,8.10
2018-12-08T10:18:15.585Z,8.03
2018-12-08T10:21:23.156Z,8.07
2018-12-08T10:24:30.676Z,8.01
2018-12-08T10:27:38.150Z,8.08
2018-12-08T10:30:46.387Z,8.10
2018-12-08T10:33:53.872Z,8.05
2018-12-08T10:37:01.361Z,8.04
2018-12-08T10:40:10.932Z,8.06
2018-12-08T10:43:18.524Z,8.12
2018-12-08T10:46:25.992Z,8.16
2018-12-08T10:49:33.517Z,8.23
2018-12-08T10:52:41.093Z,8.27
2018-12-08T10:55:58.539Z,8.27
2018-12-08T10:59:15.984Z,8.31
2018-12-08T11:02:37.799Z,8.27
2018-12-08T11:05:45.441Z,8.22
2018-12-08T11:09:03.197Z,8.22
2018-12-08T11:12:10.824Z,8.13
2018-12-08T11:15:18.360Z,8.14
2018-12-08T11:18:25.943Z,8.15
2018-12-08T11:21:43.986Z,8.09
2018-12-08T11:24:51.583Z,8.07
2018-12-08T11:27:59.055Z,8.01
2018-12-08T11:31:07.093Z,7.92
2018-12-08T11:34:14.700Z,7.97
2018-12-08T11:37:22.159Z,7.99
2018-12-08T11:40:29.665Z,8.02
2018-12-08T11:43:37.741Z,8.07
2018-12-08T11:46:45.852Z,8.06
2018-12-08T11:50:07.244Z,8.02
2018-12-08T11:53:14.872Z,7.97
2018-12-08T11:56:22.424Z,8.02
2018-12-08T11:59:29.964Z,7.98
2018-12-08T12:02:37.532Z,8.05
2018-12-08T12:05:45.901Z,8.03
2018-12-08T12:08:54.823Z,8.02
2018-12-08T12:12:12.560Z,8.05
2018-12-08T12:15:29.957Z,8.07
2018-12-08T12:18:48.028Z,8.01
2018-12-08T12:21:55.716Z,7.95
2018-12-08T12:25:04.065Z,7.98
2018-12-08T12:31:27.263Z,7.99
2018-12-08T12:34:44.709Z,7.97
2018-12-08T12:38:02.174Z,8.04
2018-12-08T12:41:19.730Z,8.05
2018-12-08T12:44:37.111Z,8.18
2018-12-08T12:47:54.528Z,8.23
2018-12-08T12:51:14.084Z,8.29
2018-12-08T12:54:31.433Z,8.34
2018-12-08T12:57:48.975Z,8.43
2018-12-08T13:01:06.436Z,8.48
2018-12-08T13:04:23.839Z,8.45
2018-12-08T13:07:41.387Z,8.44
2018-12-08T13:10:49.194Z,8.43
2018-12-08T13:13:56.691Z,8.48
2018-12-08T13:20:19.892Z,8.53
2018-12-08T13:23:37.370Z,8.63
2018-12-08T13:26:55.044Z,8.66
2018-12-08T13:30:02.596Z,8.65
2018-12-08T13:33:10.232Z,8.72
2018-12-08T13:36:17.796Z,8.89
2018-12-08T13:39:25.364Z,9.00
2018-12-08T13:42:32.859Z,9.18
2018-12-08T13:45:40.341Z,9.18
2018-12-08T13:48:48.171Z,9.23
2018-12-08T13:51:55.638Z,9.27
2018-12-08T13:55:13.136Z,9.25
2018-12-08T13:58:30.565Z,9.20
2018-12-08T14:01:48.052Z,9.28
2018-12-08T14:05:07.325Z,9.27
2018-12-08T14:08:14.811Z,9.23
2018-12-08T14:11:22.399Z,9.24
2018-12-08T14:14:29.880Z,9.23
2018-12-08T14:20:53.509Z,9.23
2018-12-08T14:24:10.988Z,9.22
2018-12-08T14:27:28.506Z,9.23
2018-12-08T14:30:46.452Z,9.19
2018-12-08T14:33:54.469Z,9.25
2018-12-08T14:37:02.044Z,9.22
2018-12-08T14:40:19.515Z,9.20
2018-12-08T14:43:27.100Z,9.14
2018-12-08T14:46:34.614Z,9.13
2018-12-08T14:49:42.198Z,9.18
2018-12-08T14:52:49.696Z,9.13
2018-12-08T14:56:07.340Z,9.12
2018-12-08T14:59:24.755Z,9.10
2018-12-08T15:02:42.734Z,9.03
2018-12-08T15:05:50.216Z,9.06
2018-12-08T15:08:57.697Z,9.05
2018-12-08T15:12:05.659Z,9.07
2018-12-08T15:15:13.164Z,9.10
2018-12-08T15:18:20.630Z,9.10
2018-12-08T15:21:28.252Z,9.15
2018-12-08T15:24:35.767Z,9.20
2018-12-08T15:27:53.205Z,9.15
2018-12-08T15:31:11.528Z,9.19
2018-12-08T15:34:19.080Z,9.21
2018-12-08T15:37:26.541Z,9.24
2018-12-08T15:40:44.769Z,9.22
2018-12-08T15:44:02.148Z,9.16
2018-12-08T15:47:20.025Z,9.21
2018-12-08T15:50:38.007Z,9.24
2018-12-08T15:53:45.926Z,9.28
2018-12-08T15:56:53.542Z,9.29
2018-12-08T16:00:13.494Z,9.33
2018-12-08T16:03:22.086Z,9.28
2018-12-08T16:06:30.951Z,9.35
2018-12-08T16:09:40.368Z,9.33
2018-12-08T16:13:02.360Z,9.35
2018-12-08T16:16:11.705Z,9.28
2018-12-08T16:19:19.228Z,9.36
2018-12-08T16:22:36.817Z,9.30
2018-12-08T16:25:54.298Z,9.21
2018-12-08T16:29:11.700Z,9.15
2018-12-08T16:32:29.837Z,9.05
2018-12-08T16:35:37.389Z,9.16
2018-12-08T16:38:44.901Z,9.08
2018-12-08T16:41:52.520Z,9.13
2018-12-08T16:44:59.996Z,9.18
2018-12-08T16:48:07.539Z,9.10
2018-12-08T16:51:15.499Z,9.15
2018-12-08T16:54:36.008Z,9.19
2018-12-08T16:57:53.564Z,9.12
2018-12-08T17:01:01.359Z,9.02
2018-12-08T17:04:08.936Z,9.03
2018-12-08T17:07:16.590Z,9.05
2018-12-08T17:10:24.852Z,9.03
2018-12-08T17:13:32.323Z,9.04
2018-12-08T17:16:39.901Z,9.07
2018-12-08T17:19:57.882Z,9.12
2018-12-08T17:23:05.800Z,9.09
2018-12-08T17:26:13.800Z,9.04
2018-12-08T17:29:21.327Z,9.00
2018-12-08T17:32:28.788Z,9.01
2018-12-08T17:35:36.298Z,8.96
2018-12-08T17:38:43.905Z,8.98
2018-12-08T17:41:51.692Z,8.92
2018-12-08T17:44:59.217Z,8.90
2018-12-08T17:48:07.122Z,8.86
2018-12-08T17:51:14.597Z,8.84
2018-12-08T17:54:22.221Z,8.79
2018-12-08T17:57:29.676Z,8.78
2018-12-08T18:00:37.984Z,8.73
2018-12-08T18:03:45.884Z,8.74
2018-12-08T18:06:53.823Z,8.73
2018-12-08T18:10:01.297Z,8.63
2018-12-08T18:13:08.744Z,8.65
2018-12-08T18:16:16.224Z,8.66
2018-12-08T18:19:23.732Z,8.63
2018-12-08T18:22:41.155Z,8.68
2018-12-08T18:25:48.955Z,8.68
2018-12-08T18:28:56.433Z,8.70
2018-12-08T18:32:03.963Z,8.64
2018-12-08T18:35:11.456Z,8.67
2018-12-08T18:38:28.996Z,8.62
2018-12-08T18:41:47.031Z,8.57
2018-12-08T18:45:04.972Z,8.59
2018-12-08T18:48:12.448Z,8.63
2018-12-08T18:51:19.959Z,8.60
2018-12-08T18:54:27.440Z,8.61
2018-12-08T18:57:34.908Z,8.51
2018-12-08T19:00:52.379Z,8.55
2018-12-08T19:04:09.792Z,8.49
2018-12-08T19:07:27.251Z,8.52
2018-12-08T19:10:44.667Z,8.42
2018-12-08T19:14:05.172Z,8.42
2018-12-08T19:17:22.640Z,8.39
2018-12-08T19:20:40.964Z,8.37
2018-12-08T19:23:48.437Z,8.41
2018-12-08T19:26:55.945Z,8.44
2018-12-08T19:30:14.386Z,8.42
2018-12-08T19:33:21.890Z,8.36
2018-12-08T19:36:29.392Z,8.38
2018-12-08T19:39:47.065Z,8.45
2018-12-08T19:42:54.520Z,8.40
2018-12-08T19:46:02.519Z,8.39
2018-12-08T19:49:10.007Z,8.50
2018-12-08T19:52:27.565Z,8.54
2018-12-08T19:55:44.977Z,8.60
2018-12-08T19:59:02.425Z,8.54
2018-12-08T20:02:19.964Z,8.55
2018-12-08T20:05:38.236Z,8.56
2018-12-08T20:08:45.799Z,8.54
2018-12-08T20:11:54.054Z,8.52
2018-12-08T20:15:01.592Z,8.47
2018-12-08T20:18:09.220Z,8.43
2018-12-08T20:21:26.844Z,8.48
2018-12-08T20:24:44.284Z,8.46
2018-12-08T20:28:01.712Z,8.48
2018-12-08T20:31:19.215Z,8.51
2018-12-08T20:34:36.672Z,8.47
2018-12-08T20:37:54.059Z,8.59
2018-12-08T20:41:11.617Z,8.64
2018-12-08T20:44:28.955Z,8.66
2018-12-08T20:47:46.391Z,8.73
2018-12-08T20:51:03.899Z,8.73
2018-12-08T20:54:21.383Z,8.79
2018-12-08T20:57:38.776Z,8.75
2018-12-08T21:00:56.183Z,8.79
2018-12-08T21:04:13.636Z,8.84
2018-12-08T21:07:31.196Z,8.84
2018-12-08T21:10:48.580Z,8.86
2018-12-08T21:14:06.447Z,8.91
2018-12-08T21:17:14.923Z,9.04
2018-12-08T21:20:22.980Z,8.93
2018-12-08T21:23:30.460Z,8.97
2018-12-08T21:26:38.098Z,8.98
2018-12-08T21:29:55.501Z,9.02
2018-12-08T21:33:12.923Z,8.96
2018-12-08T21:36:30.316Z,8.89
2018-12-08T21:39:47.820Z,8.75
2018-12-08T21:43:05.315Z,8.64
2018-12-08T21:46:22.728Z,8.57
2018-12-08T21:49:40.279Z,8.45
2018-12-08T21:52:57.633Z,8.36
2018-12-08T21:56:15.116Z,8.08
2018-12-08T21:59:32.608Z,8.06
2018-12-08T22:02:49.943Z,7.90
2018-12-08T22:06:07.540Z,7.93
2018-12-08T22:09:24.964Z,7.96
2018-12-08T22:12:42.480Z,7.86
2018-12-08T22:16:00.435Z,7.89
2018-12-08T22:19:17.809Z,7.88
2018-12-08T22:22:35.272Z,7.86
2018-12-08T22:25:52.827Z,7.83
2018-12-08T22:29:10.256Z,7.83
2018-12-08T22:32:27.571Z,7.86
2018-12-08T22:35:45.032Z,7.93
2018-12-08T22:39:02.809Z,7.96
2018-12-08T22:42:10.348Z,7.93
2018-12-08T22:45:17.803Z,7.96
2018-12-08T22:48:25.315Z,7.83
2018-12-08T22:51:32.840Z,7.63
2018-12-08T22:54:50.360Z,7.81
2018-12-08T22:57:58.173Z,7.74
2018-12-08T23:01:05.675Z,7.67
2018-12-08T23:04:13.143Z,7.67
2018-12-08T23:07:20.659Z,7.74
2018-12-08T23:10:38.295Z,7.80
2018-12-08T23:13:57.752Z,7.89
2018-12-08T23:17:15.671Z,7.81
2018-12-08T23:20:27.116Z,7.82
2018-12-08T23:23:34.866Z,7.87
2018-12-08T23:26:42.863Z,7.89
2018-12-08T23:29:50.552Z,8.02
2018-12-08T23:36:13.695Z,8.12
2018-12-08T23:39:38.775Z,8.30
2018-12-08T23:42:41.008Z,8.33
2018-12-08T23:45:48.455Z,8.39
2018-12-08T23:48:56.263Z,8.40
2018-12-08T23:52:03.836Z,8.43
2018-12-08T23:55:11.389Z,8.50
2018-12-08T23:58:18.864Z,8.55
